sensor_id;sensor_type;location;lat;lon;timestamp;P1;durP1;ratioP1;P2;durP2;ratioP2
7737;SDS011;29398;45.328;5.558;2023-05-10T17:09:51;3.08;;;1.10;;
7737;SDS011;29398;45.328;5.558;2023-05-10T17:10:54;6.20;;;1.10;;
7737;SDS011;29398;45.328;5.558;2023-05-10T17:11:55;2.15;;;0.80;;
7737;SDS011;29398;45.328;5.558;2023-05-10T17:12:57;3.47;;;1.10;;
7737;SDS011;29398;45.328;5.558;2023-05-10T17:13:59;3.38;;;0.93;;
7737;SDS011;29398;45.328;5.558;2023-05-10T17:15:02;3.15;;;1.15;;
7737;SDS011;29398;45.328;5.558;2023-05-10T17:16:03;3.58;;;0.95;;
7737;SDS011;29398;45.328;5.558;2023-05-10T17:17:05;3.38;;;0.93;;
7737;SDS011;29398;45.328;5.558;2023-05-10T17:18:06;4.45;;;1.30;;
7737;SDS011;29398;45.328;5.558;2023-05-10T17:19:09;3.28;;;1.00;;
7737;SDS011;29398;45.328;5.558;2023-05-10T17:20:10;1.95;;;0.93;;
7737;SDS011;29398;45.328;5.558;2023-05-10T17:21:13;3.20;;;1.02;;
7737;SDS011;29398;45.328;5.558;2023-05-10T17:22:14;5.18;;;1.20;;
7737;SDS011;29398;45.328;5.558;2023-05-10T17:23:16;3.58;;;1.17;;
7737;SDS011;29398;45.328;5.558;2023-05-10T17:24:17;4.65;;;1.33;;
7737;SDS011;29398;45.328;5.558;2023-05-10T17:25:20;4.13;;;1.35;;
7737;SDS011;29398;45.328;5.558;2023-05-10T17:26:22;5.22;;;1.23;;
7737;SDS011;29398;45.328;5.558;2023-05-10T17:27:24;3.17;;;1.15;;
7737;SDS011;29398;45.328;5.558;2023-05-10T17:28:26;2.50;;;1.05;;
7737;SDS011;29398;45.328;5.558;2023-05-10T17:29:28;5.47;;;1.13;;
7737;SDS011;29398;45.328;5.558;2023-05-10T17:30:31;3.17;;;1.23;;
7737;SDS011;29398;45.328;5.558;2023-05-10T17:31:33;2.10;;;0.93;;
7737;SDS011;29398;45.328;5.558;2023-05-10T17:32:34;3.28;;;1.08;;
7737;SDS011;29398;45.328;5.558;2023-05-10T17:33:36;3.67;;;1.13;;
7737;SDS011;29398;45.328;5.558;2023-05-10T17:34:38;4.43;;;1.00;;
7737;SDS011;29398;45.328;5.558;2023-05-10T17:35:43;2.45;;;1.00;;
7737;SDS011;29398;45.328;5.558;2023-05-10T17:36:44;2.42;;;1.08;;
7737;SDS011;29398;45.328;5.558;2023-05-10T17:37:46;3.80;;;1.40;;
7737;SDS011;29398;45.328;5.558;2023-05-10T17:38:47;5.35;;;1.85;;
7737;SDS011;29398;45.328;5.558;2023-05-10T17:39:50;3.00;;;0.85;;
7737;SDS011;29398;45.328;5.558;2023-05-10T17:40:53;3.33;;;1.20;;
7737;SDS011;29398;45.328;5.558;2023-05-10T17:41:55;2.45;;;0.85;;
7737;SDS011;29398;45.328;5.558;2023-05-10T17:42:56;6.15;;;1.10;;
7737;SDS011;29398;45.328;5.558;2023-05-10T17:43:58;5.38;;;1.55;;
7737;SDS011;29398;45.328;5.558;2023-05-10T17:44:59;5.20;;;1.83;;
7737;SDS011;29398;45.328;5.558;2023-05-10T17:46:01;3.72;;;1.20;;
7737;SDS011;29398;45.328;5.558;2023-05-10T17:47:02;3.28;;;1.40;;
7737;SDS011;29398;45.328;5.558;2023-05-10T17:48:05;5.50;;;1.58;;
7737;SDS011;29398;45.328;5.558;2023-05-10T17:49:07;3.67;;;1.30;;
7737;SDS011;29398;45.328;5.558;2023-05-10T17:50:09;4.65;;;1.33;;
7737;SDS011;29398;45.328;5.558;2023-05-10T17:51:10;3.92;;;1.20;;
7737;SDS011;29398;45.328;5.558;2023-05-10T17:52:12;1.73;;;1.08;;
7737;SDS011;29398;45.328;5.558;2023-05-10T17:53:14;2.58;;;1.00;;
7737;SDS011;29398;45.328;5.558;2023-05-10T17:54:15;6.05;;;1.20;;
7737;SDS011;29398;45.328;5.558;2023-05-10T17:55:18;2.45;;;1.20;;
7737;SDS011;29398;45.328;5.558;2023-05-10T17:56:21;3.78;;;1.35;;
7737;SDS011;29398;45.328;5.558;2023-05-10T17:57:22;4.13;;;1.20;;
7737;SDS011;29398;45.328;5.558;2023-05-10T17:58:25;2.33;;;0.98;;
7737;SDS011;29398;45.328;5.558;2023-05-10T17:59:26;5.38;;;1.48;;
7737;SDS011;29398;45.328;5.558;2023-05-10T18:00:28;5.63;;;1.60;;
7737;SDS011;29398;45.328;5.558;2023-05-10T18:01:29;4.82;;;1.17;;
7737;SDS011;29398;45.328;5.558;2023-05-10T18:02:31;1.70;;;1.08;;
7737;SDS011;29398;45.328;5.558;2023-05-10T18:03:34;3.33;;;1.20;;
7737;SDS011;29398;45.328;5.558;2023-05-10T18:04:38;4.53;;;1.38;;
7737;SDS011;29398;45.328;5.558;2023-05-10T18:05:39;4.22;;;1.48;;
7737;SDS011;29398;45.328;5.558;2023-05-10T18:06:41;3.63;;;1.42;;
7737;SDS011;29398;45.328;5.558;2023-05-10T18:07:42;6.78;;;1.52;;
7737;SDS011;29398;45.328;5.558;2023-05-10T18:08:44;3.53;;;1.20;;
7737;SDS011;29398;45.328;5.558;2023-05-10T18:09:45;3.55;;;1.25;;
7737;SDS011;29398;45.328;5.558;2023-05-10T18:10:47;3.92;;;1.30;;
7737;SDS011;29398;45.328;5.558;2023-05-10T18:11:51;3.95;;;1.30;;
7737;SDS011;29398;45.328;5.558;2023-05-10T18:12:53;5.53;;;1.30;;
7737;SDS011;29398;45.328;5.558;2023-05-10T18:13:54;4.30;;;1.10;;
7737;SDS011;29398;45.328;5.558;2023-05-10T18:14:56;5.68;;;1.33;;
7737;SDS011;29398;45.328;5.558;2023-05-10T18:15:58;3.10;;;1.10;;
7737;SDS011;29398;45.328;5.558;2023-05-10T18:16:59;4.70;;;1.23;;
7737;SDS011;29398;45.328;5.558;2023-05-10T18:18:01;6.40;;;1.50;;
7737;SDS011;29398;45.328;5.558;2023-05-10T18:19:03;2.67;;;1.20;;
7737;SDS011;29398;45.328;5.558;2023-05-10T18:20:05;2.78;;;1.33;;
7737;SDS011;29398;45.328;5.558;2023-05-10T18:21:07;5.05;;;3.38;;
7737;SDS011;29398;45.328;5.558;2023-05-10T18:22:10;5.47;;;2.67;;
7737;SDS011;29398;45.328;5.558;2023-05-10T18:23:11;5.30;;;1.58;;
7737;SDS011;29398;45.328;5.558;2023-05-10T18:24:14;5.65;;;2.20;;
7737;SDS011;29398;45.328;5.558;2023-05-10T18:25:15;9.43;;;1.73;;
7737;SDS011;29398;45.328;5.558;2023-05-10T18:26:17;6.35;;;1.80;;
7737;SDS011;29398;45.328;5.558;2023-05-10T18:27:20;3.20;;;1.60;;
7737;SDS011;29398;45.328;5.558;2023-05-10T18:28:22;4.40;;;2.08;;
7737;SDS011;29398;45.328;5.558;2023-05-10T18:29:23;3.55;;;1.65;;
7737;SDS011;29398;45.328;5.558;2023-05-10T18:30:25;5.20;;;2.53;;
7737;SDS011;29398;45.328;5.558;2023-05-10T18:31:27;3.88;;;1.70;;
7737;SDS011;29398;45.328;5.558;2023-05-10T18:32:29;3.40;;;1.50;;
7737;SDS011;29398;45.328;5.558;2023-05-10T18:33:31;4.07;;;1.42;;
7737;SDS011;29398;45.328;5.558;2023-05-10T18:34:33;3.47;;;1.20;;
7737;SDS011;29398;45.328;5.558;2023-05-10T18:35:34;5.35;;;1.50;;
7737;SDS011;29398;45.328;5.558;2023-05-10T18:36:36;3.65;;;1.35;;
7737;SDS011;29398;45.328;5.558;2023-05-10T18:37:37;4.35;;;1.75;;
7737;SDS011;29398;45.328;5.558;2023-05-10T18:38:39;3.55;;;1.30;;
7737;SDS011;29398;45.328;5.558;2023-05-10T18:39:41;2.63;;;1.30;;
7737;SDS011;29398;45.328;5.558;2023-05-10T18:40:43;3.60;;;1.40;;
7737;SDS011;29398;45.328;5.558;2023-05-10T18:41:44;2.65;;;1.23;;
7737;SDS011;29398;45.328;5.558;2023-05-10T18:42:47;6.07;;;1.48;;
7737;SDS011;29398;45.328;5.558;2023-05-10T18:43:49;5.32;;;1.40;;
7737;SDS011;29398;45.328;5.558;2023-05-10T18:44:53;3.03;;;1.40;;
7737;SDS011;29398;45.328;5.558;2023-05-10T18:45:54;4.10;;;1.20;;
7737;SDS011;29398;45.328;5.558;2023-05-10T18:46:57;4.90;;;1.75;;
7737;SDS011;29398;45.328;5.558;2023-05-10T18:47:58;3.63;;;1.23;;
7737;SDS011;29398;45.328;5.558;2023-05-10T18:49:00;5.55;;;1.48;;
7737;SDS011;29398;45.328;5.558;2023-05-10T18:50:02;4.25;;;1.30;;
7737;SDS011;29398;45.328;5.558;2023-05-10T18:51:04;5.20;;;1.20;;
7737;SDS011;29398;45.328;5.558;2023-05-10T18:52:06;4.55;;;1.52;;
7737;SDS011;29398;45.328;5.558;2023-05-10T18:53:08;2.60;;;1.30;;
7737;SDS011;29398;45.328;5.558;2023-05-10T18:54:09;3.55;;;1.27;;
7737;SDS011;29398;45.328;5.558;2023-05-10T18:55:12;2.90;;;1.25;;
7737;SDS011;29398;45.328;5.558;2023-05-10T18:56:14;2.55;;;1.48;;
7737;SDS011;29398;45.328;5.558;2023-05-10T18:57:16;5.32;;;1.83;;
7737;SDS011;29398;45.328;5.558;2023-05-10T18:58:19;4.43;;;1.70;;
7737;SDS011;29398;45.328;5.558;2023-05-10T18:59:21;3.72;;;1.52;;
7737;SDS011;29398;45.328;5.558;2023-05-10T19:00:24;6.10;;;1.80;;
7737;SDS011;29398;45.328;5.558;2023-05-10T19:01:25;6.75;;;1.63;;
7737;SDS011;29398;45.328;5.558;2023-05-10T19:02:27;6.32;;;1.70;;
7737;SDS011;29398;45.328;5.558;2023-05-10T19:03:28;3.85;;;1.90;;
7737;SDS011;29398;45.328;5.558;2023-05-10T19:04:30;4.57;;;1.60;;
7737;SDS011;29398;45.328;5.558;2023-05-10T19:05:31;4.07;;;1.60;;
7737;SDS011;29398;45.328;5.558;2023-05-10T19:06:34;4.05;;;1.77;;
7737;SDS011;29398;45.328;5.558;2023-05-10T19:07:35;3.42;;;1.67;;
7737;SDS011;29398;45.328;5.558;2023-05-10T19:08:37;5.28;;;1.70;;
7737;SDS011;29398;45.328;5.558;2023-05-10T19:09:38;4.35;;;1.63;;
7737;SDS011;29398;45.328;5.558;2023-05-10T19:10:40;5.80;;;2.03;;
7737;SDS011;29398;45.328;5.558;2023-05-10T19:11:41;6.55;;;1.90;;
7737;SDS011;29398;45.328;5.558;2023-05-10T19:12:43;4.93;;;1.52;;
7737;SDS011;29398;45.328;5.558;2023-05-10T19:13:46;6.90;;;1.88;;
7737;SDS011;29398;45.328;5.558;2023-05-10T19:14:48;6.45;;;1.50;;
7737;SDS011;29398;45.328;5.558;2023-05-10T19:15:59;8.50;;;1.75;;
7737;SDS011;29398;45.328;5.558;2023-05-10T19:17:04;8.95;;;2.15;;
7737;SDS011;29398;45.328;5.558;2023-05-10T19:18:05;6.35;;;2.05;;
7737;SDS011;29398;45.328;5.558;2023-05-10T19:19:08;5.38;;;2.22;;
7737;SDS011;29398;45.328;5.558;2023-05-10T19:20:10;4.40;;;2.30;;
7737;SDS011;29398;45.328;5.558;2023-05-10T19:21:12;6.93;;;2.75;;
7737;SDS011;29398;45.328;5.558;2023-05-10T19:22:15;6.88;;;2.50;;
7737;SDS011;29398;45.328;5.558;2023-05-10T19:23:17;8.88;;;2.33;;
7737;SDS011;29398;45.328;5.558;2023-05-10T19:24:18;8.38;;;2.13;;
7737;SDS011;29398;45.328;5.558;2023-05-10T19:25:24;4.60;;;1.60;;
7737;SDS011;29398;45.328;5.558;2023-05-10T19:26:28;5.32;;;1.80;;
7737;SDS011;29398;45.328;5.558;2023-05-10T19:27:31;3.20;;;1.52;;
7737;SDS011;29398;45.328;5.558;2023-05-10T19:28:32;5.13;;;2.13;;
7737;SDS011;29398;45.328;5.558;2023-05-10T19:29:36;2.58;;;1.50;;
7737;SDS011;29398;45.328;5.558;2023-05-10T19:30:37;4.18;;;1.80;;
7737;SDS011;29398;45.328;5.558;2023-05-10T19:31:39;4.15;;;1.50;;
7737;SDS011;29398;45.328;5.558;2023-05-10T19:32:40;3.95;;;1.70;;
7737;SDS011;29398;45.328;5.558;2023-05-10T19:33:43;6.05;;;1.98;;
7737;SDS011;29398;45.328;5.558;2023-05-10T19:34:44;3.85;;;1.70;;
7737;SDS011;29398;45.328;5.558;2023-05-10T19:35:48;6.15;;;2.00;;
7737;SDS011;29398;45.328;5.558;2023-05-10T19:36:50;5.00;;;1.42;;
7737;SDS011;29398;45.328;5.558;2023-05-10T19:37:52;5.22;;;2.10;;
7737;SDS011;29398;45.328;5.558;2023-05-10T19:38:53;8.02;;;1.70;;
7737;SDS011;29398;45.328;5.558;2023-05-10T19:39:55;4.88;;;1.90;;
7737;SDS011;29398;45.328;5.558;2023-05-10T19:40:56;4.05;;;1.67;;
7737;SDS011;29398;45.328;5.558;2023-05-10T19:41:59;4.57;;;1.33;;
7737;SDS011;29398;45.328;5.558;2023-05-10T19:43:00;7.13;;;1.67;;
7737;SDS011;29398;45.328;5.558;2023-05-10T19:44:02;1.90;;;1.27;;
7737;SDS011;29398;45.328;5.558;2023-05-10T19:45:06;4.53;;;1.40;;
7737;SDS011;29398;45.328;5.558;2023-05-10T19:46:09;5.57;;;1.50;;
7737;SDS011;29398;45.328;5.558;2023-05-10T19:47:11;6.45;;;1.38;;
7737;SDS011;29398;45.328;5.558;2023-05-10T19:48:12;3.67;;;1.98;;
7737;SDS011;29398;45.328;5.558;2023-05-10T19:49:15;5.32;;;1.80;;
7737;SDS011;29398;45.328;5.558;2023-05-10T19:50:18;5.25;;;1.77;;
7737;SDS011;29398;45.328;5.558;2023-05-10T19:51:19;4.78;;;1.60;;
7737;SDS011;29398;45.328;5.558;2023-05-10T19:52:21;5.13;;;1.67;;
7737;SDS011;29398;45.328;5.558;2023-05-10T19:53:22;4.78;;;1.60;;
7737;SDS011;29398;45.328;5.558;2023-05-10T19:54:24;6.13;;;1.70;;
7737;SDS011;29398;45.328;5.558;2023-05-10T19:55:26;5.68;;;1.92;;
7737;SDS011;29398;45.328;5.558;2023-05-10T19:56:29;6.43;;;1.77;;
7737;SDS011;29398;45.328;5.558;2023-05-10T19:57:30;3.05;;;1.73;;
7737;SDS011;29398;45.328;5.558;2023-05-10T19:58:32;5.05;;;1.80;;
7737;SDS011;29398;45.328;5.558;2023-05-10T19:59:33;2.95;;;1.80;;
7737;SDS011;29398;45.328;5.558;2023-05-10T20:00:37;3.38;;;1.60;;
7737;SDS011;29398;45.328;5.558;2023-05-10T20:01:38;6.82;;;1.70;;
7737;SDS011;29398;45.328;5.558;2023-05-10T20:02:40;5.60;;;1.70;;
7737;SDS011;29398;45.328;5.558;2023-05-10T20:03:41;9.13;;;2.03;;
7737;SDS011;29398;45.328;5.558;2023-05-10T20:04:43;3.50;;;1.60;;
7737;SDS011;29398;45.328;5.558;2023-05-10T20:05:44;6.25;;;1.80;;
7737;SDS011;29398;45.328;5.558;2023-05-10T20:06:46;3.80;;;1.50;;
7737;SDS011;29398;45.328;5.558;2023-05-10T20:07:48;4.85;;;1.55;;
7737;SDS011;29398;45.328;5.558;2023-05-10T20:08:50;3.60;;;1.60;;
7737;SDS011;29398;45.328;5.558;2023-05-10T20:09:51;3.17;;;1.50;;
7737;SDS011;29398;45.328;5.558;2023-05-10T20:10:53;5.72;;;1.52;;
7737;SDS011;29398;45.328;5.558;2023-05-10T20:11:57;4.18;;;1.45;;
7737;SDS011;29398;45.328;5.558;2023-05-10T20:12:59;5.38;;;1.63;;
7737;SDS011;29398;45.328;5.558;2023-05-10T20:14:00;5.97;;;2.00;;
7737;SDS011;29398;45.328;5.558;2023-05-10T20:15:02;6.35;;;1.80;;
7737;SDS011;29398;45.328;5.558;2023-05-10T20:16:07;4.40;;;1.92;;
7737;SDS011;29398;45.328;5.558;2023-05-10T20:17:09;5.10;;;1.90;;
7737;SDS011;29398;45.328;5.558;2023-05-10T20:18:10;4.25;;;2.10;;
7737;SDS011;29398;45.328;5.558;2023-05-10T20:19:12;6.00;;;1.90;;
7737;SDS011;29398;45.328;5.558;2023-05-10T20:20:13;5.55;;;2.30;;
7737;SDS011;29398;45.328;5.558;2023-05-10T20:21:16;3.13;;;1.80;;
7737;SDS011;29398;45.328;5.558;2023-05-10T20:22:19;4.53;;;1.77;;
7737;SDS011;29398;45.328;5.558;2023-05-10T20:23:20;3.85;;;2.03;;
7737;SDS011;29398;45.328;5.558;2023-05-10T20:24:22;3.40;;;1.90;;
7737;SDS011;29398;45.328;5.558;2023-05-10T20:25:24;5.32;;;2.10;;
7737;SDS011;29398;45.328;5.558;2023-05-10T20:26:25;4.22;;;1.90;;
7737;SDS011;29398;45.328;5.558;2023-05-10T20:27:27;8.75;;;2.10;;
7737;SDS011;29398;45.328;5.558;2023-05-10T20:28:28;3.28;;;1.70;;
7737;SDS011;29398;45.328;5.558;2023-05-10T20:29:30;6.03;;;2.35;;
7737;SDS011;29398;45.328;5.558;2023-05-10T20:30:31;4.90;;;2.70;;
7737;SDS011;29398;45.328;5.558;2023-05-10T20:31:35;5.60;;;2.60;;
7737;SDS011;29398;45.328;5.558;2023-05-10T20:32:36;3.55;;;1.80;;
7737;SDS011;29398;45.328;5.558;2023-05-10T20:33:38;4.00;;;2.30;;
7737;SDS011;29398;45.328;5.558;2023-05-10T20:34:39;6.47;;;2.40;;
7737;SDS011;29398;45.328;5.558;2023-05-10T20:35:41;5.20;;;2.75;;
7737;SDS011;29398;45.328;5.558;2023-05-10T20:36:44;4.35;;;2.10;;
7737;SDS011;29398;45.328;5.558;2023-05-10T20:37:45;5.50;;;2.10;;
7737;SDS011;29398;45.328;5.558;2023-05-10T20:38:47;6.45;;;2.35;;
7737;SDS011;29398;45.328;5.558;2023-05-10T20:39:48;8.38;;;2.08;;
7737;SDS011;29398;45.328;5.558;2023-05-10T20:40:50;4.10;;;1.83;;
7737;SDS011;29398;45.328;5.558;2023-05-10T20:41:51;3.78;;;2.00;;
7737;SDS011;29398;45.328;5.558;2023-05-10T20:42:54;5.72;;;2.20;;
7737;SDS011;29398;45.328;5.558;2023-05-10T20:43:55;3.90;;;1.77;;
7737;SDS011;29398;45.328;5.558;2023-05-10T20:44:57;4.57;;;1.80;;
7737;SDS011;29398;45.328;5.558;2023-05-10T20:45:59;4.68;;;2.00;;
7737;SDS011;29398;45.328;5.558;2023-05-10T20:47:05;7.57;;;2.33;;
7737;SDS011;29398;45.328;5.558;2023-05-10T20:48:07;5.53;;;2.08;;
7737;SDS011;29398;45.328;5.558;2023-05-10T20:49:09;5.00;;;2.20;;
7737;SDS011;29398;45.328;5.558;2023-05-10T20:50:10;4.63;;;2.00;;
7737;SDS011;29398;45.328;5.558;2023-05-10T20:51:12;4.45;;;2.17;;
7737;SDS011;29398;45.328;5.558;2023-05-10T20:52:14;6.65;;;2.08;;
7737;SDS011;29398;45.328;5.558;2023-05-10T20:53:15;4.03;;;1.70;;
7737;SDS011;29398;45.328;5.558;2023-05-10T20:54:17;5.45;;;1.98;;
7737;SDS011;29398;45.328;5.558;2023-05-10T20:55:19;3.88;;;2.10;;
7737;SDS011;29398;45.328;5.558;2023-05-10T20:56:21;4.55;;;1.77;;
7737;SDS011;29398;45.328;5.558;2023-05-10T20:57:22;5.90;;;1.95;;
7737;SDS011;29398;45.328;5.558;2023-05-10T20:58:25;5.03;;;1.67;;
7737;SDS011;29398;45.328;5.558;2023-05-10T20:59:26;7.88;;;2.05;;
7737;SDS011;29398;45.328;5.558;2023-05-10T21:00:28;4.20;;;1.80;;
7737;SDS011;29398;45.328;5.558;2023-05-10T21:01:29;7.40;;;2.38;;
7737;SDS011;29398;45.328;5.558;2023-05-10T21:02:33;6.05;;;1.88;;
7737;SDS011;29398;45.328;5.558;2023-05-10T21:03:34;6.57;;;1.80;;
7737;SDS011;29398;45.328;5.558;2023-05-10T21:04:36;5.85;;;1.90;;
7737;SDS011;29398;45.328;5.558;2023-05-10T21:05:37;7.30;;;2.42;;
7737;SDS011;29398;45.328;5.558;2023-05-10T21:06:40;7.18;;;2.30;;
7737;SDS011;29398;45.328;5.558;2023-05-10T21:07:42;5.03;;;2.28;;
7737;SDS011;29398;45.328;5.558;2023-05-10T21:08:44;4.78;;;1.77;;
7737;SDS011;29398;45.328;5.558;2023-05-10T21:09:45;3.70;;;2.00;;
7737;SDS011;29398;45.328;5.558;2023-05-10T21:10:47;5.88;;;1.80;;
7737;SDS011;29398;45.328;5.558;2023-05-10T21:11:48;7.07;;;2.22;;
7737;SDS011;29398;45.328;5.558;2023-05-10T21:12:51;5.15;;;1.77;;
7737;SDS011;29398;45.328;5.558;2023-05-10T21:13:52;12.27;;;2.20;;
7737;SDS011;29398;45.328;5.558;2023-05-10T21:14:54;5.25;;;1.80;;
7737;SDS011;29398;45.328;5.558;2023-05-10T21:15:55;5.68;;;1.92;;
7737;SDS011;29398;45.328;5.558;2023-05-10T21:16:57;4.00;;;2.20;;
7737;SDS011;29398;45.328;5.558;2023-05-10T21:17:59;4.78;;;1.95;;
7737;SDS011;29398;45.328;5.558;2023-05-10T21:19:01;3.72;;;1.70;;
7737;SDS011;29398;45.328;5.558;2023-05-10T21:20:03;5.15;;;1.70;;
7737;SDS011;29398;45.328;5.558;2023-05-10T21:21:05;7.88;;;1.85;;
7737;SDS011;29398;45.328;5.558;2023-05-10T21:22:06;8.68;;;2.13;;
7737;SDS011;29398;45.328;5.558;2023-05-10T21:23:09;4.38;;;1.77;;
7737;SDS011;29398;45.328;5.558;2023-05-10T21:24:10;5.40;;;1.58;;
7737;SDS011;29398;45.328;5.558;2023-05-10T21:25:12;5.32;;;2.17;;
7737;SDS011;29398;45.328;5.558;2023-05-10T21:26:14;5.63;;;1.73;;
7737;SDS011;29398;45.328;5.558;2023-05-10T21:27:17;4.10;;;1.52;;
7737;SDS011;29398;45.328;5.558;2023-05-10T21:28:18;6.03;;;2.20;;
7737;SDS011;29398;45.328;5.558;2023-05-10T21:29:20;7.20;;;1.90;;
7737;SDS011;29398;45.328;5.558;2023-05-10T21:30:21;3.20;;;1.63;;
7737;SDS011;29398;45.328;5.558;2023-05-10T21:31:23;7.40;;;1.90;;
7737;SDS011;29398;45.328;5.558;2023-05-10T21:32:24;4.28;;;1.90;;
7737;SDS011;29398;45.328;5.558;2023-05-10T21:33:28;6.40;;;1.80;;
7737;SDS011;29398;45.328;5.558;2023-05-10T21:34:29;4.28;;;1.80;;
7737;SDS011;29398;45.328;5.558;2023-05-10T21:35:31;3.10;;;1.30;;
7737;SDS011;29398;45.328;5.558;2023-05-10T21:36:32;3.33;;;1.50;;
7737;SDS011;29398;45.328;5.558;2023-05-10T21:37:34;2.90;;;1.73;;
7737;SDS011;29398;45.328;5.558;2023-05-10T21:38:35;4.55;;;1.70;;
7737;SDS011;29398;45.328;5.558;2023-05-10T21:39:37;3.92;;;1.67;;
7737;SDS011;29398;45.328;5.558;2023-05-10T21:40:38;3.83;;;1.63;;
7737;SDS011;29398;45.328;5.558;2023-05-10T21:41:40;5.50;;;1.92;;
7737;SDS011;29398;45.328;5.558;2023-05-10T21:42:41;4.22;;;1.95;;
7737;SDS011;29398;45.328;5.558;2023-05-10T21:43:48;5.35;;;2.40;;
7737;SDS011;29398;45.328;5.558;2023-05-10T21:44:49;4.05;;;1.80;;
7737;SDS011;29398;45.328;5.558;2023-05-10T21:45:52;6.00;;;2.30;;
7737;SDS011;29398;45.328;5.558;2023-05-10T21:46:53;4.72;;;2.17;;
7737;SDS011;29398;45.328;5.558;2023-05-10T21:47:55;6.10;;;2.20;;
7737;SDS011;29398;45.328;5.558;2023-05-10T21:48:58;5.03;;;2.15;;
7737;SDS011;29398;45.328;5.558;2023-05-10T21:50:00;6.18;;;1.98;;
7737;SDS011;29398;45.328;5.558;2023-05-10T21:51:01;5.22;;;2.33;;
7737;SDS011;29398;45.328;5.558;2023-05-10T21:52:03;6.15;;;2.20;;
7737;SDS011;29398;45.328;5.558;2023-05-10T21:53:04;6.60;;;2.50;;
7737;SDS011;29398;45.328;5.558;2023-05-10T21:54:06;4.38;;;2.17;;
7737;SDS011;29398;45.328;5.558;2023-05-10T21:55:08;6.50;;;2.30;;
7737;SDS011;29398;45.328;5.558;2023-05-10T21:56:10;5.70;;;2.67;;
7737;SDS011;29398;45.328;5.558;2023-05-10T21:57:11;6.30;;;2.40;;
7737;SDS011;29398;45.328;5.558;2023-05-10T21:58:13;6.15;;;2.05;;
7737;SDS011;29398;45.328;5.558;2023-05-10T21:59:14;4.28;;;1.92;;
7737;SDS011;29398;45.328;5.558;2023-05-10T22:00:17;3.78;;;1.55;;
7737;SDS011;29398;45.328;5.558;2023-05-10T22:01:18;11.65;;;2.03;;
7737;SDS011;29398;45.328;5.558;2023-05-10T22:02:20;4.40;;;1.73;;
7737;SDS011;29398;45.328;5.558;2023-05-10T22:03:21;3.08;;;1.55;;
7737;SDS011;29398;45.328;5.558;2023-05-10T22:04:25;3.67;;;1.77;;
7737;SDS011;29398;45.328;5.558;2023-05-10T22:05:26;4.90;;;1.90;;
7737;SDS011;29398;45.328;5.558;2023-05-10T22:06:28;5.85;;;1.80;;
7737;SDS011;29398;45.328;5.558;2023-05-10T22:07:29;5.30;;;2.50;;
7737;SDS011;29398;45.328;5.558;2023-05-10T22:08:31;5.07;;;2.50;;
7737;SDS011;29398;45.328;5.558;2023-05-10T22:09:32;2.80;;;1.63;;
7737;SDS011;29398;45.328;5.558;2023-05-10T22:10:34;7.15;;;1.95;;
7737;SDS011;29398;45.328;5.558;2023-05-10T22:11:35;3.47;;;1.80;;
7737;SDS011;29398;45.328;5.558;2023-05-10T22:12:37;4.55;;;1.48;;
7737;SDS011;29398;45.328;5.558;2023-05-10T22:13:38;2.47;;;1.52;;
7737;SDS011;29398;45.328;5.558;2023-05-10T22:14:40;4.63;;;1.88;;
7737;SDS011;29398;45.328;5.558;2023-05-10T22:15:42;2.80;;;1.63;;
7737;SDS011;29398;45.328;5.558;2023-05-10T22:16:44;5.18;;;1.60;;
7737;SDS011;29398;45.328;5.558;2023-05-10T22:17:45;4.22;;;1.60;;
7737;SDS011;29398;45.328;5.558;2023-05-10T22:18:47;7.25;;;1.98;;
7737;SDS011;29398;45.328;5.558;2023-05-10T22:19:49;8.23;;;1.70;;
7737;SDS011;29398;45.328;5.558;2023-05-10T22:20:51;4.70;;;1.90;;
7737;SDS011;29398;45.328;5.558;2023-05-10T22:21:53;6.03;;;1.83;;
7737;SDS011;29398;45.328;5.558;2023-05-10T22:22:55;4.82;;;2.03;;
7737;SDS011;29398;45.328;5.558;2023-05-10T22:23:56;6.20;;;1.98;;
7737;SDS011;29398;45.328;5.558;2023-05-10T22:24:58;3.60;;;1.58;;
7737;SDS011;29398;45.328;5.558;2023-05-10T22:25:59;4.47;;;1.77;;
7737;SDS011;29398;45.328;5.558;2023-05-10T22:27:02;5.45;;;1.60;;
7737;SDS011;29398;45.328;5.558;2023-05-10T22:28:04;5.90;;;1.73;;
7737;SDS011;29398;45.328;5.558;2023-05-10T22:29:07;6.72;;;2.25;;
7737;SDS011;29398;45.328;5.558;2023-05-10T22:30:08;9.02;;;2.10;;
7737;SDS011;29398;45.328;5.558;2023-05-10T22:31:11;3.47;;;2.03;;
7737;SDS011;29398;45.328;5.558;2023-05-10T22:32:12;5.82;;;1.90;;
7737;SDS011;29398;45.328;5.558;2023-05-10T22:33:14;4.32;;;1.80;;
7737;SDS011;29398;45.328;5.558;2023-05-10T22:34:15;5.18;;;1.98;;
7737;SDS011;29398;45.328;5.558;2023-05-10T22:35:19;4.80;;;1.90;;
7737;SDS011;29398;45.328;5.558;2023-05-10T22:36:21;6.10;;;1.92;;
7737;SDS011;29398;45.328;5.558;2023-05-10T22:37:22;3.08;;;1.75;;
7737;SDS011;29398;45.328;5.558;2023-05-10T22:38:24;4.85;;;2.15;;
7737;SDS011;29398;45.328;5.558;2023-05-10T22:39:25;4.28;;;2.03;;
7737;SDS011;29398;45.328;5.558;2023-05-10T22:40:28;3.72;;;1.83;;
7737;SDS011;29398;45.328;5.558;2023-05-10T22:41:29;5.00;;;1.85;;
7737;SDS011;29398;45.328;5.558;2023-05-10T22:42:31;3.60;;;1.95;;
7737;SDS011;29398;45.328;5.558;2023-05-10T22:43:32;9.13;;;2.08;;
7737;SDS011;29398;45.328;5.558;2023-05-10T22:44:34;4.65;;;1.98;;
7737;SDS011;29398;45.328;5.558;2023-05-10T22:45:35;5.75;;;1.90;;
7737;SDS011;29398;45.328;5.558;2023-05-10T22:46:37;4.38;;;1.85;;
7737;SDS011;29398;45.328;5.558;2023-05-10T22:47:38;4.28;;;2.33;;
7737;SDS011;29398;45.328;5.558;2023-05-10T22:48:41;4.15;;;2.42;;
7737;SDS011;29398;45.328;5.558;2023-05-10T22:49:42;4.80;;;1.95;;
7737;SDS011;29398;45.328;5.558;2023-05-10T22:50:46;3.35;;;1.90;;
7737;SDS011;29398;45.328;5.558;2023-05-10T22:51:47;3.15;;;1.88;;
7737;SDS011;29398;45.328;5.558;2023-05-10T22:52:49;5.40;;;2.00;;
7737;SDS011;29398;45.328;5.558;2023-05-10T22:53:50;4.25;;;2.00;;
7737;SDS011;29398;45.328;5.558;2023-05-10T22:54:52;3.20;;;1.85;;
7737;SDS011;29398;45.328;5.558;2023-05-10T22:55:53;3.05;;;1.80;;
7737;SDS011;29398;45.328;5.558;2023-05-10T22:56:55;4.75;;;2.20;;
7737;SDS011;29398;45.328;5.558;2023-05-10T22:57:56;5.43;;;1.88;;
7737;SDS011;29398;45.328;5.558;2023-05-10T22:58:58;4.90;;;1.90;;
7737;SDS011;29398;45.328;5.558;2023-05-10T22:59:59;6.28;;;2.15;;
7737;SDS011;29398;45.328;5.558;2023-05-10T23:01:03;8.25;;;2.00;;
7737;SDS011;29398;45.328;5.558;2023-05-10T23:02:04;4.53;;;2.08;;
7737;SDS011;29398;45.328;5.558;2023-05-10T23:03:06;6.78;;;2.30;;
7737;SDS011;29398;45.328;5.558;2023-05-10T23:04:07;7.20;;;1.80;;
7737;SDS011;29398;45.328;5.558;2023-05-10T23:05:09;2.85;;;1.73;;
7737;SDS011;29398;45.328;5.558;2023-05-10T23:06:12;7.10;;;1.80;;
7737;SDS011;29398;45.328;5.558;2023-05-10T23:07:14;4.25;;;1.77;;
7737;SDS011;29398;45.328;5.558;2023-05-10T23:08:15;3.70;;;1.63;;
7737;SDS011;29398;45.328;5.558;2023-05-10T23:09:17;4.35;;;1.65;;
7737;SDS011;29398;45.328;5.558;2023-05-10T23:10:18;5.50;;;1.50;;
7737;SDS011;29398;45.328;5.558;2023-05-10T23:11:20;4.35;;;1.70;;
7737;SDS011;29398;45.328;5.558;2023-05-10T23:12:21;3.90;;;1.52;;
7737;SDS011;29398;45.328;5.558;2023-05-10T23:13:24;4.30;;;1.77;;
7737;SDS011;29398;45.328;5.558;2023-05-10T23:14:26;4.32;;;2.33;;
7737;SDS011;29398;45.328;5.558;2023-05-10T23:15:28;7.53;;;1.90;;
7737;SDS011;29398;45.328;5.558;2023-05-10T23:16:32;4.25;;;1.92;;
7737;SDS011;29398;45.328;5.558;2023-05-10T23:17:34;5.68;;;1.63;;
7737;SDS011;29398;45.328;5.558;2023-05-10T23:18:35;5.25;;;2.03;;
7737;SDS011;29398;45.328;5.558;2023-05-10T23:19:37;4.72;;;1.77;;
7737;SDS011;29398;45.328;5.558;2023-05-10T23:20:39;6.65;;;2.13;;
7737;SDS011;29398;45.328;5.558;2023-05-10T23:21:43;5.22;;;1.77;;
7737;SDS011;29398;45.328;5.558;2023-05-10T23:22:44;5.13;;;2.15;;
7737;SDS011;29398;45.328;5.558;2023-05-10T23:23:46;6.10;;;1.90;;
7737;SDS011;29398;45.328;5.558;2023-05-10T23:24:47;4.00;;;1.70;;
7737;SDS011;29398;45.328;5.558;2023-05-10T23:25:49;3.92;;;1.60;;
7737;SDS011;29398;45.328;5.558;2023-05-10T23:26:51;4.82;;;1.67;;
7737;SDS011;29398;45.328;5.558;2023-05-10T23:27:53;5.95;;;1.90;;